• Join FlightAware (Why Join?)
  • Login
  • US Flag 
09:34AM EDT


 

Airport Tracker/Info


-or-


 

Live Flight TrackerFlight Track Log ✈ WAV761 ✈ 10.06.2013 ✈ PATA / TAL - PAFA / FAI

Flight Track Log - Related Links

Times and Time Zones

All times are in EDT time to prevent confusion due to time zone crossing. See the WAV761 flight status page for this flight to view local times or setup timezone preferences in your user account.

Time Position Orientation Groundspeed Altitude Reporting Facility
EDT Latitude Longitude Course Direction KTS MPH feet Rate Location/Type
09:57PM 65.1167 -151.6500 98° East 120 138 6,600  Level Anchorage Center
09:58PM 65.1000 -151.5500 112° Southeast 180 207 7,000 180 Climbing Anchorage Center
09:59PM 65.0833 -151.4500 112° Southeast 160 184 7,000  Level Anchorage Center
10:00PM 65.0833 -151.3500 90° East 150 173 7,000  Level Anchorage Center
10:01PM 65.1256 -151.5766 97° East  Level FlightAware Approximate
10:01PM 65.0667 -151.2333 109° East 180 207 7,000  Level Anchorage Center
10:02PM 65.1197 -151.4711 98° East  Level FlightAware Approximate
10:02PM 65.0667 -151.1167 90° East 170 196 7,000  Level Anchorage Center
10:03PM 65.0500 -151.0167 112° Southeast 170 196 7,000  Level Anchorage Center
10:04PM 65.0500 -150.9000 90° East 170 196 7,000  Level Anchorage Center
10:05PM 65.0500 -150.8000 90° East 160 184 7,000  Level Anchorage Center
10:06PM 65.0333 -150.6833 109° East 170 196 7,000  Level Anchorage Center
10:07PM 65.0167 -150.5667 109° East 170 196 7,000  Level Anchorage Center
10:08PM 65.0167 -150.4667 90° East 170 196 7,000  Level Anchorage Center
10:09PM 65.0167 -150.3500 90° East 170 196 7,000  Level Anchorage Center
10:10PM 65.0000 -150.2333 109° East 170 196 7,000  Level Anchorage Center
10:11PM 64.9833 -150.1333 111° Southeast 170 196 7,000  Level Anchorage Center
10:12PM 64.9833 -150.0167 90° East 180 207 7,000  Level Anchorage Center
10:13PM 64.9667 -149.9167 111° Southeast 160 184 7,000  Level Anchorage Center
10:14PM 64.9667 -149.8000 90° East 170 196 7,000  Level Anchorage Center
10:15PM 64.9667 -149.7000 90° East 150 173 7,000  Level Anchorage Center
10:16PM 64.9500 -149.5833 109° East 180 207 7,000  Level Anchorage Center
10:18PM 64.9379 -149.3916 98° East  Level FlightAware Approximate
10:25PM 64.8853 -148.6633 108° East  Level FlightAware Approximate
10:26PM 64.8710 -148.5633 109° East  Level FlightAware Approximate
10:27PM 64.8604 -148.4611 101° East  Level FlightAware Approximate
10:28PM 64.8514 -148.3578 102° East  Level FlightAware Approximate
10:29PM 64.8424 -148.2546 102° East  Level FlightAware Approximate
10:30PM 64.8332 -148.1515 102° East  Level FlightAware Approximate
10:31PM 64.8240 -148.0485 102° East  Level FlightAware Approximate
10:32PM 64.8137 -147.9461 109° East  Level FlightAware Approximate
10:33PM 64.8000 -147.8500 109° East  Level FlightAware Approximate
10:34PM 64.8151 -147.8564 109° East  Level Estimated
10:35PM 64.8151 -147.8564 109° East  Level Estimated
10:36PM 64.8151 -147.8564 109° East  Level Estimated
10:37PM 64.8151 -147.8564 109° East  Level Estimated
10:38PM 64.8151 -147.8564 109° East  Level Estimated
10:39PM 64.8151 -147.8564 109° East  Level Estimated
10:40PM 64.8151 -147.8564 109° East  Level Estimated
10:41PM 64.8151 -147.8564 109° East  Level Estimated
10:42PM 64.8151 -147.8564 109° East  Level Estimated
10:43PM 64.8151 -147.8564 109° East  Level Estimated
10:44PM 64.8151 -147.8564 109° East  Level Estimated
10:45PM 64.8151 -147.8564 109° East  Level Estimated
10:46PM 64.8151 -147.8564 109° East  Level Estimated
10:47PM 64.8151 -147.8564 109° East  Level Estimated
10:48PM 64.8151 -147.8564 109° East  Level Estimated
10:49PM 64.8151 -147.8564 109° East  Level Estimated
10:50PM 64.8151 -147.8564 109° East  Level Estimated
10:51PM 64.8151 -147.8564 109° East  Level Estimated
10:52PM 64.8151 -147.8564 109° East  Level Estimated